createdAt,value
2022-11-28T00:01:19.819Z,4.70
2022-11-28T00:06:23.400Z,4.68
2022-11-28T00:08:51.409Z,4.70
2022-11-28T00:11:18.676Z,4.47
2022-11-28T00:13:45.938Z,4.18
2022-11-28T00:16:20.527Z,4.57
2022-11-28T00:18:48.252Z,4.13
2022-11-28T00:21:15.929Z,4.00
2022-11-28T00:23:44.007Z,3.88
2022-11-28T00:26:15.320Z,4.10
2022-11-28T00:28:42.005Z,3.92
2022-11-28T00:31:14.697Z,4.30
2022-11-28T00:33:42.189Z,4.43
2022-11-28T00:36:09.259Z,3.95
2022-11-28T00:38:35.807Z,3.70
2022-11-28T00:41:07.846Z,3.97
2022-11-28T00:43:34.915Z,4.35
2022-11-28T00:46:03.097Z,4.00
2022-11-28T00:48:31.709Z,4.35
2022-11-28T00:51:10.286Z,3.95
2022-11-28T00:53:38.152Z,4.82
2022-11-28T00:56:06.050Z,4.68
2022-11-28T00:58:34.623Z,4.60
2022-11-28T01:01:07.673Z,4.72
2022-11-28T01:03:34.290Z,3.65
2022-11-28T01:06:00.849Z,4.57
2022-11-28T01:08:28.382Z,5.03
2022-11-28T01:10:55.081Z,4.38
2022-11-28T01:15:48.383Z,4.65
2022-11-28T01:20:41.515Z,4.05
2022-11-28T01:23:08.142Z,4.07
2022-11-28T01:25:35.203Z,4.78
2022-11-28T01:28:01.936Z,4.82
2022-11-28T01:32:55.353Z,5.25
2022-11-28T01:37:48.394Z,4.18
2022-11-28T01:40:16.153Z,4.70
2022-11-28T01:42:42.803Z,5.70
2022-11-28T01:45:14.479Z,5.00
2022-11-28T01:47:41.363Z,4.68
2022-11-28T01:50:09.531Z,4.63
2022-11-28T01:52:40.627Z,5.05
2022-11-28T01:55:08.624Z,5.13
2022-11-28T01:57:35.330Z,4.68
2022-11-28T02:02:39.010Z,5.40
2022-11-28T02:07:33.628Z,4.80
2022-11-28T02:10:03.499Z,4.97
2022-11-28T02:12:40.262Z,5.45
2022-11-28T02:15:11.901Z,5.00
2022-11-28T02:18:10.187Z,5.10
2022-11-28T02:21:03.559Z,4.30
2022-11-28T02:24:20.965Z,5.15
2022-11-28T02:27:09.627Z,5.47
2022-11-28T02:29:40.155Z,4.68
2022-11-28T02:32:16.835Z,4.50
2022-11-28T02:34:59.091Z,4.85
2022-11-28T02:37:51.925Z,3.85
2022-11-28T02:40:36.281Z,4.38
2022-11-28T02:43:28.820Z,4.80
2022-11-28T02:46:04.296Z,3.90
2022-11-28T02:48:31.096Z,4.63
2022-11-28T02:56:04.652Z,4.20
2022-11-28T02:58:31.180Z,4.25
2022-11-28T03:00:57.808Z,3.70
2022-11-28T03:06:27.508Z,3.97
2022-11-28T03:09:26.580Z,4.65
2022-11-28T03:12:25.616Z,4.40
2022-11-28T03:14:55.660Z,4.70
2022-11-28T03:17:32.268Z,4.97
2022-11-28T03:20:04.852Z,4.72
2022-11-28T03:22:49.452Z,4.75
2022-11-28T03:25:32.201Z,4.35
2022-11-28T03:28:27.589Z,4.80
2022-11-28T03:31:17.345Z,4.18
2022-11-28T03:33:51.587Z,4.78
2022-11-28T03:36:25.631Z,3.90
2022-11-28T03:38:56.829Z,4.18
2022-11-28T03:41:31.689Z,4.18
2022-11-28T03:43:59.963Z,4.22
2022-11-28T03:46:35.185Z,4.00
2022-11-28T03:49:03.229Z,3.97
2022-11-28T03:51:39.160Z,4.00
2022-11-28T03:54:14.037Z,3.97
2022-11-28T03:56:52.149Z,4.13
2022-11-28T03:59:34.652Z,3.90
2022-11-28T04:02:16.616Z,4.20
2022-11-28T04:05:14.373Z,3.83
2022-11-28T04:08:13.497Z,3.60
2022-11-28T04:11:13.626Z,4.53
2022-11-28T04:13:50.262Z,3.88
2022-11-28T04:16:31.650Z,4.00
2022-11-28T04:19:18.941Z,3.75
2022-11-28T04:22:16.466Z,4.10
2022-11-28T04:24:51.465Z,4.05
2022-11-28T04:27:23.455Z,3.83
2022-11-28T04:29:54.768Z,3.95
2022-11-28T04:32:23.941Z,4.20
2022-11-28T04:34:59.898Z,3.70
2022-11-28T04:37:28.720Z,3.70
2022-11-28T04:39:56.877Z,3.70
2022-11-28T04:42:38.283Z,4.28
2022-11-28T04:45:12.793Z,4.07
2022-11-28T04:47:39.535Z,4.28
2022-11-28T04:52:45.982Z,4.18
2022-11-28T04:55:22.586Z,3.67
2022-11-28T04:57:57.363Z,4.53
2022-11-28T05:00:26.180Z,4.00
2022-11-28T05:02:55.061Z,4.38
2022-11-28T05:05:24.562Z,4.13
2022-11-28T05:07:52.652Z,4.47
2022-11-28T05:10:19.851Z,4.60
2022-11-28T05:12:46.935Z,5.32
2022-11-28T05:15:18.983Z,5.20
2022-11-28T05:17:47.001Z,4.70
2022-11-28T05:20:14.163Z,4.90
2022-11-28T05:22:40.691Z,5.00
2022-11-28T05:25:07.537Z,4.80
2022-11-28T05:27:34.063Z,5.20
2022-11-28T05:30:00.532Z,5.57
2022-11-28T05:32:30.192Z,4.82
2022-11-28T05:34:56.947Z,5.38
2022-11-28T05:39:49.927Z,5.15
2022-11-28T05:42:16.461Z,4.40
2022-11-28T05:44:43.052Z,4.35
2022-11-28T05:47:11.128Z,4.30
2022-11-28T05:49:37.987Z,4.50
2022-11-28T05:52:04.730Z,4.45
2022-11-28T05:56:58.569Z,4.45
2022-11-28T05:59:26.516Z,4.78
2022-11-28T06:01:53.137Z,4.60
2022-11-28T06:06:46.306Z,5.10
2022-11-28T06:09:12.840Z,4.38
2022-11-28T06:11:39.318Z,4.65
2022-11-28T06:14:06.017Z,4.20
2022-11-28T06:16:32.745Z,4.15
2022-11-28T06:21:28.672Z,4.60
2022-11-28T06:23:57.034Z,5.40
2022-11-28T06:26:25.073Z,4.20
2022-11-28T06:28:51.804Z,4.75
2022-11-28T06:33:50.153Z,5.13
2022-11-28T06:36:18.945Z,4.75
2022-11-28T06:38:45.504Z,4.68
2022-11-28T06:41:15.146Z,4.63
2022-11-28T06:43:42.040Z,4.72
2022-11-28T06:46:16.309Z,4.65
2022-11-28T06:48:44.001Z,5.68
2022-11-28T06:51:11.337Z,4.72
2022-11-28T06:53:37.827Z,5.82
2022-11-28T06:56:10.277Z,5.43
2022-11-28T06:58:37.165Z,5.22
2022-11-28T07:01:23.822Z,4.28
2022-11-28T07:03:50.505Z,5.20
2022-11-28T07:06:19.198Z,5.07
2022-11-28T07:08:46.649Z,5.15
2022-11-28T07:11:22.158Z,5.25
2022-11-28T07:13:49.679Z,5.40
2022-11-28T07:16:26.393Z,5.28
2022-11-28T07:18:53.909Z,5.47
2022-11-28T07:21:20.651Z,4.90
2022-11-28T07:26:15.950Z,5.03
2022-11-28T07:28:43.357Z,5.43
2022-11-28T07:31:11.374Z,5.30
2022-11-28T07:33:39.647Z,5.72
2022-11-28T07:36:11.298Z,5.18
2022-11-28T07:38:37.874Z,6.03
2022-11-28T07:41:10.030Z,5.38
2022-11-28T07:43:36.793Z,5.45
2022-11-28T07:48:31.533Z,4.88
2022-11-28T07:50:57.966Z,5.32
2022-11-28T07:53:24.493Z,5.50
2022-11-28T07:55:51.247Z,6.28
2022-11-28T08:00:44.051Z,4.35
2022-11-28T08:03:10.492Z,5.00
2022-11-28T08:05:36.997Z,5.30
2022-11-28T08:08:03.625Z,4.65
2022-11-28T08:10:30.238Z,5.05
2022-11-28T08:12:56.688Z,5.10
2022-11-28T08:15:23.145Z,5.25
2022-11-28T08:17:49.588Z,5.15
2022-11-28T08:20:16.168Z,5.40
2022-11-28T08:22:42.616Z,6.93
2022-11-28T08:25:09.612Z,5.80
2022-11-28T08:27:36.076Z,5.30
2022-11-28T08:30:02.608Z,5.38
2022-11-28T08:32:30.504Z,5.70
2022-11-28T08:34:57.164Z,5.50
2022-11-28T08:37:23.591Z,5.95
2022-11-28T08:39:50.010Z,5.90
2022-11-28T08:42:16.483Z,5.32
2022-11-28T08:44:43.022Z,5.55
2022-11-28T08:47:09.474Z,5.53
2022-11-28T08:49:39.453Z,5.43
2022-11-28T08:52:06.259Z,5.93
2022-11-28T08:56:59.283Z,5.63
2022-11-28T08:59:25.787Z,6.05
2022-11-28T09:01:53.535Z,5.90
2022-11-28T09:04:21.332Z,5.32
2022-11-28T09:06:47.876Z,5.55
2022-11-28T09:09:14.374Z,5.40
2022-11-28T09:11:41.467Z,6.97
2022-11-28T09:14:08.544Z,5.82
2022-11-28T09:16:35.125Z,5.65
2022-11-28T09:19:01.687Z,4.95
2022-11-28T09:21:28.194Z,5.45
2022-11-28T09:23:56.216Z,5.75
2022-11-28T09:26:25.375Z,5.35
2022-11-28T09:28:52.646Z,5.20
2022-11-28T09:31:19.793Z,6.20
2022-11-28T09:33:48.276Z,6.63
2022-11-28T09:36:18.376Z,5.78
2022-11-28T09:38:45.931Z,5.20
2022-11-28T09:41:43.327Z,5.45
2022-11-28T09:44:21.051Z,4.82
2022-11-28T09:46:50.102Z,6.28
2022-11-28T09:49:25.271Z,6.10
2022-11-28T09:51:58.519Z,5.50
2022-11-28T09:54:34.165Z,6.35
2022-11-28T09:57:03.344Z,5.75
2022-11-28T09:59:30.799Z,5.85
2022-11-28T10:02:09.392Z,6.47
2022-11-28T10:05:00.315Z,5.22
2022-11-28T10:08:17.445Z,5.72
2022-11-28T10:11:35.131Z,4.70
2022-11-28T10:14:43.578Z,5.22
2022-11-28T10:17:36.585Z,4.95
2022-11-28T10:20:10.974Z,6.47
2022-11-28T10:22:44.471Z,6.32
2022-11-28T10:25:30.735Z,5.57
2022-11-28T10:27:57.617Z,7.05
2022-11-28T10:33:03.438Z,5.05
2022-11-28T10:38:16.574Z,5.38
2022-11-28T10:40:50.255Z,5.72
2022-11-28T10:43:22.610Z,5.78
2022-11-28T10:46:25.134Z,5.72
2022-11-28T10:49:18.730Z,5.93
2022-11-28T10:51:59.314Z,7.03
2022-11-28T10:54:39.927Z,6.47
2022-11-28T10:57:10.542Z,6.35
2022-11-28T10:59:55.728Z,5.28
2022-11-28T11:02:46.493Z,6.03
2022-11-28T11:05:16.380Z,5.70
2022-11-28T11:07:50.283Z,5.93
2022-11-28T11:10:33.738Z,5.50
2022-11-28T11:13:00.282Z,6.28
2022-11-28T11:15:32.610Z,7.32
2022-11-28T11:18:19.867Z,6.63
2022-11-28T11:20:46.338Z,9.05
2022-11-28T11:23:18.078Z,6.65
2022-11-28T11:25:58.358Z,7.25
2022-11-28T11:28:45.507Z,5.85
2022-11-28T11:31:22.045Z,5.82
2022-11-28T11:33:53.181Z,6.53
2022-11-28T11:36:24.095Z,6.07
2022-11-28T11:38:50.668Z,7.18
2022-11-28T11:41:27.471Z,6.95
2022-11-28T11:43:54.113Z,6.55
2022-11-28T11:46:20.936Z,6.20
2022-11-28T11:51:28.750Z,5.53
2022-11-28T11:54:13.633Z,5.90
2022-11-28T11:56:43.703Z,5.88
2022-11-28T11:59:16.164Z,5.35
2022-11-28T12:01:45.784Z,5.50
2022-11-28T12:04:47.201Z,5.65
2022-11-28T12:07:58.796Z,5.75
2022-11-28T12:10:30.099Z,5.50
2022-11-28T12:12:57.089Z,6.45
2022-11-28T12:15:26.295Z,7.40
2022-11-28T12:17:59.193Z,6.32
2022-11-28T12:20:32.436Z,5.82
2022-11-28T12:23:17.848Z,6.57
2022-11-28T12:25:52.090Z,6.07
2022-11-28T12:28:39.918Z,5.45
2022-11-28T12:34:28.708Z,4.97
2022-11-28T12:37:03.011Z,5.30
2022-11-28T12:39:43.179Z,6.18
2022-11-28T12:42:28.163Z,5.88
2022-11-28T12:45:14.039Z,6.25
2022-11-28T12:47:45.603Z,6.85
2022-11-28T12:50:35.420Z,6.43
2022-11-28T12:53:20.435Z,7.00
2022-11-28T12:56:00.119Z,6.18
2022-11-28T12:58:36.488Z,5.45
2022-11-28T13:01:21.700Z,6.07
2022-11-28T13:04:25.682Z,5.93
2022-11-28T13:07:21.705Z,6.40
2022-11-28T13:10:18.787Z,6.03
2022-11-28T13:13:01.253Z,6.28
2022-11-28T13:15:55.270Z,5.35
2022-11-28T13:18:33.065Z,6.35
2022-11-28T13:21:02.518Z,6.95
2022-11-28T13:24:07.110Z,6.28
2022-11-28T13:26:43.421Z,6.60
2022-11-28T13:29:30.532Z,7.60
2022-11-28T13:32:51.394Z,6.82
2022-11-28T13:35:19.466Z,6.10
2022-11-28T13:40:53.793Z,6.65
2022-11-28T13:43:41.193Z,7.15
2022-11-28T13:46:09.798Z,7.05
2022-11-28T13:49:12.675Z,6.38
2022-11-28T13:51:33.689Z,7.20
2022-11-28T13:54:19.187Z,6.53
2022-11-28T13:56:48.317Z,5.97
2022-11-28T13:59:21.536Z,6.30
2022-11-28T14:01:56.904Z,7.10
2022-11-28T14:04:24.360Z,7.20
2022-11-28T14:07:03.733Z,7.38
2022-11-28T14:10:08.916Z,6.72
2022-11-28T14:12:47.581Z,6.03
2022-11-28T14:15:29.743Z,6.32
2022-11-28T14:18:19.159Z,7.38
2022-11-28T14:21:05.269Z,7.53
2022-11-28T14:23:53.420Z,7.28
2022-11-28T14:26:30.201Z,7.95
2022-11-28T14:28:57.025Z,8.98
2022-11-28T14:34:01.172Z,7.25
2022-11-28T14:36:31.286Z,9.10
2022-11-28T14:39:12.018Z,8.75
2022-11-28T14:42:09.860Z,7.28
2022-11-28T14:44:54.695Z,7.13
2022-11-28T14:47:21.125Z,7.00
2022-11-28T14:49:48.323Z,6.38
2022-11-28T14:52:38.503Z,6.82
2022-11-28T14:55:12.190Z,7.93
2022-11-28T14:57:44.710Z,8.82
2022-11-28T15:00:24.246Z,8.70
2022-11-28T15:03:03.835Z,7.63
2022-11-28T15:05:49.052Z,9.52
2022-11-28T15:08:37.428Z,8.43
2022-11-28T15:11:41.553Z,9.10
2022-11-28T15:14:14.065Z,8.50
2022-11-28T15:16:48.418Z,7.72
2022-11-28T15:19:28.684Z,6.70
2022-11-28T15:21:56.267Z,6.85
2022-11-28T15:24:35.826Z,7.85
2022-11-28T15:27:11.255Z,7.75
2022-11-28T15:29:38.055Z,6.90
2022-11-28T15:34:34.763Z,5.97
2022-11-28T15:37:16.574Z,5.90
2022-11-28T15:39:47.973Z,6.18
2022-11-28T15:42:30.460Z,7.88
2022-11-28T15:45:20.283Z,7.13
2022-11-28T15:47:48.285Z,7.72
2022-11-28T15:50:19.481Z,8.57
2022-11-28T15:53:16.826Z,9.30
2022-11-28T15:55:44.179Z,6.82
2022-11-28T15:58:16.487Z,9.02
2022-11-28T16:00:45.402Z,7.93
2022-11-28T16:03:22.557Z,8.95
2022-11-28T16:05:52.460Z,7.10
2022-11-28T16:08:28.514Z,8.32
2022-11-28T16:10:56.375Z,8.25
2022-11-28T16:13:24.987Z,8.05
2022-11-28T16:15:54.198Z,8.35
2022-11-28T16:18:20.824Z,9.10
2022-11-28T16:20:48.047Z,11.77
2022-11-28T16:23:27.475Z,13.50
2022-11-28T16:26:04.691Z,11.40
2022-11-28T16:28:34.408Z,11.05
2022-11-28T16:31:01.398Z,8.60
2022-11-28T16:33:34.967Z,8.52
2022-11-28T16:36:11.644Z,8.18
2022-11-28T16:38:39.465Z,7.45
2022-11-28T16:41:06.115Z,7.68
2022-11-28T16:43:38.418Z,8.60
2022-11-28T16:46:07.985Z,8.65
2022-11-28T16:48:46.761Z,7.93
2022-11-28T16:51:13.377Z,8.65
2022-11-28T16:53:47.933Z,10.00
2022-11-28T16:56:30.054Z,9.48
2022-11-28T16:59:11.792Z,7.90
2022-11-28T17:01:39.301Z,8.02
2022-11-28T17:04:06.125Z,8.27
2022-11-28T17:09:01.860Z,7.50
2022-11-28T17:11:32.758Z,7.70
2022-11-28T17:14:02.516Z,9.70
2022-11-28T17:16:30.429Z,11.63
2022-11-28T17:18:57.044Z,8.95
2022-11-28T17:21:45.409Z,8.65
2022-11-28T17:24:21.184Z,7.75
2022-11-28T17:26:48.170Z,7.30
2022-11-28T17:29:15.560Z,7.25
2022-11-28T17:31:43.156Z,7.72
2022-11-28T17:34:14.749Z,6.90
2022-11-28T17:36:41.201Z,7.03
2022-11-28T17:39:07.660Z,8.93
2022-11-28T17:41:34.279Z,10.95
2022-11-28T17:44:00.942Z,10.18
2022-11-28T17:46:27.685Z,8.15
2022-11-28T18:35:09.497Z,5.10
2022-11-28T18:37:36.788Z,6.07
2022-11-28T18:40:08.792Z,7.00
2022-11-28T18:42:36.187Z,7.15
2022-11-28T18:45:02.812Z,7.32
2022-11-28T18:47:29.408Z,8.60
2022-11-28T18:49:55.895Z,8.50
2022-11-28T18:52:22.456Z,8.57
2022-11-28T18:54:48.988Z,9.20
2022-11-28T18:57:15.413Z,9.63
2022-11-28T18:59:46.168Z,9.82
2022-11-28T19:02:16.667Z,7.30
2022-11-28T19:07:10.601Z,10.38
2022-11-28T19:09:37.179Z,16.15
2022-11-28T19:12:03.851Z,13.75
2022-11-28T19:14:30.334Z,12.90
2022-11-28T19:16:56.961Z,10.10
2022-11-28T19:19:24.028Z,10.05
2022-11-28T19:21:50.565Z,10.38
2022-11-28T19:24:17.090Z,9.63
2022-11-28T19:26:43.592Z,9.88
2022-11-28T19:29:10.486Z,9.90
2022-11-28T19:31:38.736Z,8.73
2022-11-28T19:34:08.158Z,9.13
2022-11-28T19:36:37.828Z,11.60
2022-11-28T19:39:05.012Z,9.57
2022-11-28T19:41:32.421Z,10.05
2022-11-28T19:43:59.153Z,8.35
2022-11-28T19:48:58.649Z,8.73
2022-11-28T19:51:25.214Z,9.13
2022-11-28T19:53:51.662Z,9.18
2022-11-28T19:56:20.770Z,8.98
2022-11-28T19:58:47.726Z,9.10
2022-11-28T20:01:17.135Z,9.00
2022-11-28T20:03:44.112Z,9.25
2022-11-28T20:06:16.591Z,11.40
2022-11-28T20:08:43.508Z,10.25
2022-11-28T20:11:21.262Z,12.07
2022-11-28T20:13:48.566Z,9.68
2022-11-28T20:16:17.396Z,9.80
2022-11-28T20:18:45.331Z,10.85
2022-11-28T20:21:15.238Z,8.30
2022-11-28T20:23:45.698Z,9.63
2022-11-28T20:26:13.861Z,9.48
2022-11-28T20:28:41.998Z,10.10
2022-11-28T20:31:25.791Z,9.75
2022-11-28T20:33:53.278Z,9.02
2022-11-28T20:36:22.366Z,8.35
2022-11-28T20:38:49.948Z,9.48
2022-11-28T20:41:18.435Z,9.70
2022-11-28T20:43:45.243Z,9.70
2022-11-28T20:48:48.867Z,7.75
2022-11-28T20:51:21.079Z,9.18
2022-11-28T20:53:48.637Z,9.55
2022-11-28T20:56:18.574Z,9.25
2022-11-28T20:58:45.950Z,9.27
2022-11-28T21:01:20.372Z,10.32
2022-11-28T21:03:47.407Z,10.70
2022-11-28T21:06:14.084Z,9.95
2022-11-28T21:11:09.842Z,9.93
2022-11-28T21:13:36.332Z,10.60
2022-11-28T21:16:07.975Z,12.20
2022-11-28T21:18:36.030Z,9.95
2022-11-28T21:21:17.837Z,9.70
2022-11-28T21:23:45.722Z,8.75
2022-11-28T21:26:18.237Z,9.50
2022-11-28T21:28:46.825Z,9.35
2022-11-28T21:31:15.646Z,12.27
2022-11-28T21:33:42.186Z,10.43
2022-11-28T21:36:10.066Z,10.00
2022-11-28T21:38:36.653Z,9.60
2022-11-28T21:41:03.204Z,9.98
2022-11-28T21:43:30.062Z,9.75
2022-11-28T21:46:04.459Z,11.80
2022-11-28T21:48:32.061Z,10.43
2022-11-28T21:50:59.160Z,9.40
2022-11-28T21:53:27.089Z,10.27
2022-11-28T21:55:55.478Z,10.57
2022-11-28T21:58:26.649Z,10.25
2022-11-28T22:01:01.942Z,10.68
2022-11-28T22:03:30.124Z,10.70
2022-11-28T22:06:05.809Z,10.07
2022-11-28T22:08:32.656Z,10.95
2022-11-28T22:11:01.082Z,14.13
2022-11-28T22:13:28.354Z,18.25
2022-11-28T22:15:54.913Z,15.07
2022-11-28T22:18:21.517Z,15.15
2022-11-28T22:20:52.842Z,11.98
2022-11-28T22:23:19.812Z,14.60
2022-11-28T22:25:52.969Z,12.63
2022-11-28T22:28:19.766Z,11.93
2022-11-28T22:33:12.638Z,10.75
2022-11-28T22:35:39.074Z,10.73
2022-11-28T22:38:05.529Z,10.57
2022-11-28T22:40:32.003Z,10.05
2022-11-28T22:42:58.555Z,9.88
2022-11-28T22:45:24.984Z,10.40
2022-11-28T22:47:51.412Z,10.25
2022-11-28T22:50:18.114Z,9.02
2022-11-28T22:52:44.681Z,8.30
2022-11-28T22:55:11.172Z,7.93
2022-11-28T22:57:37.646Z,8.32
2022-11-28T23:00:06.434Z,9.43
2022-11-28T23:02:32.981Z,8.25
2022-11-28T23:04:59.553Z,9.70
2022-11-28T23:07:26.093Z,9.50
2022-11-28T23:09:52.682Z,9.90
2022-11-28T23:12:19.268Z,9.20
2022-11-28T23:14:46.046Z,10.18
2022-11-28T23:17:12.755Z,9.35
2022-11-28T23:19:40.169Z,10.15
2022-11-28T23:22:06.634Z,9.75
2022-11-28T23:24:33.071Z,9.40
2022-11-28T23:26:59.523Z,11.70
2022-11-28T23:29:26.037Z,11.00
2022-11-28T23:31:52.507Z,11.60
2022-11-28T23:34:19.006Z,8.60
2022-11-28T23:36:46.995Z,9.65
2022-11-28T23:39:19.814Z,9.68
2022-11-28T23:41:46.789Z,8.05
2022-11-28T23:44:15.092Z,9.07
2022-11-28T23:46:42.201Z,9.30
2022-11-28T23:49:09.503Z,8.85
2022-11-28T23:51:36.030Z,11.23
2022-11-28T23:54:02.522Z,10.35
2022-11-28T23:56:31.684Z,9.95
2022-11-28T23:59:01.232Z,9.73
